createdAt,value
2019-04-20T00:02:07.404Z,51.29
2019-04-20T00:04:35.368Z,51.42
2019-04-20T00:07:02.412Z,50.35
2019-04-20T00:09:34.821Z,51.53
2019-04-20T00:12:57.029Z,52.83
2019-04-20T00:15:13.065Z,51.44
2019-04-20T00:17:50.867Z,52.92
2019-04-20T00:20:20.085Z,51.80
2019-04-20T00:23:02.107Z,52.70
2019-04-20T00:26:00.428Z,52.27
2019-04-20T00:28:40.823Z,51.89
2019-04-20T00:31:09.174Z,52.72
2019-04-20T00:33:31.110Z,51.27
2019-04-20T00:35:52.628Z,52.57
2019-04-20T00:38:25.986Z,53.45
2019-04-20T00:40:58.299Z,53.18
2019-04-20T00:43:29.132Z,51.74
2019-04-20T00:46:01.990Z,52.31
2019-04-20T00:48:33.797Z,51.71
2019-04-20T00:51:11.522Z,51.07
2019-04-20T00:53:31.521Z,51.54
2019-04-20T00:55:54.974Z,51.17
2019-04-20T00:58:33.385Z,53.18
2019-04-20T01:01:13.029Z,52.79
2019-04-20T01:03:43.236Z,52.44
2019-04-20T01:06:31.878Z,52.72
2019-04-20T01:09:05.466Z,52.32
2019-04-20T01:14:30.880Z,53.36
2019-04-20T01:16:58.855Z,52.36
2019-04-20T01:19:23.442Z,52.34
2019-04-20T01:21:59.671Z,52.08
2019-04-20T01:24:29.637Z,50.53
2019-04-20T01:26:55.926Z,50.31
2019-04-20T01:29:32.418Z,49.69
2019-04-20T01:32:07.762Z,49.97
2019-04-20T01:34:38.996Z,49.63
2019-04-20T01:37:09.290Z,52.35
2019-04-20T01:39:31.721Z,50.52
2019-04-20T01:41:56.138Z,51.42
2019-04-20T01:44:31.682Z,51.24
2019-04-20T01:46:58.747Z,51.13
2019-04-20T01:50:13.359Z,52.14
2019-04-20T01:52:50.728Z,51.04
2019-04-20T01:55:44.000Z,50.15
2019-04-20T01:58:37.769Z,50.68
2019-04-20T02:03:57.183Z,49.69
2019-04-20T02:06:50.330Z,50.36
2019-04-20T02:09:20.491Z,50.60
2019-04-20T02:11:48.800Z,50.81
2019-04-20T02:14:42.989Z,51.96
2019-04-20T02:18:02.221Z,53.59
2019-04-20T02:20:37.509Z,53.28
2019-04-20T02:22:59.268Z,52.83
2019-04-20T02:25:16.412Z,54.35
2019-04-20T02:27:50.283Z,53.25
2019-04-20T02:31:32.667Z,53.88
2019-04-20T02:34:16.467Z,50.82
2019-04-20T02:37:14.143Z,51.47
2019-04-20T02:40:15.919Z,52.88
2019-04-20T02:42:50.859Z,53.39
2019-04-20T02:45:27.715Z,53.64
2019-04-20T02:47:51.312Z,51.26
2019-04-20T02:55:22.545Z,50.50
2019-04-20T02:57:53.177Z,50.52
2019-04-20T03:00:12.691Z,51.11
2019-04-20T03:02:33.746Z,50.40
2019-04-20T03:05:02.682Z,50.02
2019-04-20T03:07:31.556Z,50.01
2019-04-20T03:10:06.432Z,51.70
2019-04-20T03:12:59.362Z,52.37
2019-04-20T03:15:01.608Z,51.74
2019-04-20T03:17:45.997Z,51.89
2019-04-20T03:20:06.904Z,51.52
2019-04-20T03:25:45.442Z,52.73
2019-04-20T03:31:33.413Z,55.52
2019-04-20T03:34:15.246Z,55.70
2019-04-20T03:36:19.578Z,57.09
2019-04-20T03:38:36.332Z,56.29
2019-04-20T03:40:59.152Z,56.35
2019-04-20T03:43:18.146Z,56.18
2019-04-20T03:45:56.224Z,57.11
2019-04-20T03:48:38.137Z,57.97
2019-04-20T03:54:07.603Z,58.71
2019-04-20T03:56:49.532Z,58.39
2019-04-20T03:59:44.298Z,58.62
2019-04-20T04:02:49.396Z,59.73
2019-04-20T04:07:29.572Z,59.48
2019-04-20T04:10:08.181Z,59.71
2019-04-20T04:12:58.793Z,59.99
2019-04-20T04:15:27.793Z,60.78
2019-04-20T04:18:42.008Z,60.50
2019-04-20T04:21:12.879Z,58.88
2019-04-20T04:23:56.229Z,59.80
2019-04-20T04:26:28.750Z,59.94
2019-04-20T04:28:53.812Z,60.73
2019-04-20T04:31:27.557Z,60.04
2019-04-20T04:34:03.598Z,60.71
2019-04-20T04:36:20.794Z,61.18
2019-04-20T04:39:03.903Z,60.27
2019-04-20T04:41:26.707Z,59.61
2019-04-20T04:44:01.782Z,60.31
2019-04-20T04:46:10.862Z,60.78
2019-04-20T04:48:45.947Z,59.71
2019-04-20T04:51:19.738Z,58.41
2019-04-20T04:53:53.002Z,59.07
2019-04-20T04:56:17.923Z,59.71
2019-04-20T04:58:42.806Z,59.59
2019-04-20T05:01:18.497Z,57.59
2019-04-20T05:04:10.541Z,58.37
2019-04-20T05:08:53.271Z,55.53
2019-04-20T05:11:17.908Z,55.90
2019-04-20T05:13:54.618Z,54.59
2019-04-20T05:16:39.694Z,55.43
2019-04-20T05:19:15.435Z,54.24
2019-04-20T05:24:56.702Z,53.02
2019-04-20T05:27:46.559Z,53.17
2019-04-20T05:29:56.997Z,53.10
2019-04-20T05:32:35.753Z,52.50
2019-04-20T05:35:23.737Z,52.54
2019-04-20T05:37:53.652Z,52.52
2019-04-20T05:40:22.314Z,51.82
2019-04-20T05:43:07.795Z,51.23
2019-04-20T05:45:32.323Z,51.33
2019-04-20T05:48:04.589Z,51.54
2019-04-20T05:50:36.401Z,50.75
2019-04-20T05:53:16.027Z,50.45
2019-04-20T05:55:40.069Z,51.47
2019-04-20T05:58:10.774Z,50.18
2019-04-20T06:00:47.647Z,50.51
2019-04-20T06:03:07.379Z,50.43
2019-04-20T06:05:50.752Z,49.80
2019-04-20T06:11:21.706Z,50.34
2019-04-20T06:13:59.967Z,49.71
2019-04-20T06:19:26.050Z,49.28
2019-04-20T06:22:12.674Z,49.41
2019-04-20T06:25:06.132Z,49.52
2019-04-20T06:27:38.150Z,48.70
2019-04-20T06:29:55.868Z,48.20
2019-04-20T06:33:13.107Z,48.38
2019-04-20T06:35:56.619Z,48.15
2019-04-20T06:38:26.674Z,46.56
2019-04-20T06:40:57.851Z,45.95
2019-04-20T06:43:05.026Z,46.41
2019-04-20T06:45:49.581Z,46.02
2019-04-20T06:48:15.348Z,45.21
2019-04-20T06:53:47.387Z,39.55
2019-04-20T06:56:42.641Z,35.17
2019-04-20T06:59:11.936Z,31.83
2019-04-20T07:01:48.740Z,29.81
2019-04-20T07:09:14.091Z,27.74
2019-04-20T07:11:42.558Z,27.43
2019-04-20T07:13:59.423Z,26.99
2019-04-20T07:16:58.611Z,27.79
2019-04-20T07:22:33.503Z,25.37
2019-04-20T07:25:02.416Z,26.75
2019-04-20T07:31:18.168Z,25.81
2019-04-20T07:33:52.420Z,25.58
2019-04-20T07:36:28.376Z,26.62
2019-04-20T07:38:54.081Z,26.06
2019-04-20T07:41:29.336Z,28.50
2019-04-20T07:44:01.671Z,27.03
2019-04-20T07:46:37.653Z,27.22
2019-04-20T07:48:58.032Z,26.56
2019-04-20T07:51:12.467Z,27.00
2019-04-20T07:53:45.085Z,26.71
2019-04-20T07:56:23.616Z,27.62
2019-04-20T07:58:43.381Z,29.12
2019-04-20T08:01:54.757Z,28.15
2019-04-20T08:06:54.844Z,29.05
2019-04-20T08:09:30.141Z,28.43
2019-04-20T08:12:38.242Z,27.97
2019-04-20T08:15:09.099Z,28.67
2019-04-20T08:17:44.279Z,29.27
2019-04-20T08:19:57.819Z,29.20
2019-04-20T08:22:34.142Z,29.82
2019-04-20T08:24:55.304Z,30.19
2019-04-20T08:30:33.647Z,32.13
2019-04-20T08:33:55.254Z,33.32
2019-04-20T08:36:22.868Z,33.32
2019-04-20T08:42:00.425Z,34.80
2019-04-20T08:48:09.877Z,35.18
2019-04-20T08:50:50.700Z,33.81
2019-04-20T08:53:27.572Z,33.84
2019-04-20T08:55:48.894Z,35.00
2019-04-20T08:58:04.985Z,34.06
2019-04-20T09:00:39.545Z,33.85
2019-04-20T09:03:13.210Z,33.10
2019-04-20T09:05:45.941Z,33.37
2019-04-20T09:08:13.507Z,32.87
2019-04-20T09:10:54.385Z,32.71
2019-04-20T09:13:16.020Z,33.28
2019-04-20T09:15:36.306Z,32.64
2019-04-20T09:18:52.531Z,32.99
2019-04-20T09:21:33.117Z,33.22
2019-04-20T09:24:30.292Z,33.50
2019-04-20T09:26:54.600Z,32.70
2019-04-20T09:29:15.994Z,33.33
2019-04-20T09:34:57.748Z,32.89
2019-04-20T09:37:41.205Z,33.27
2019-04-20T09:40:40.668Z,32.83
2019-04-20T09:48:11.628Z,33.56
2019-04-20T09:50:53.128Z,32.06
2019-04-20T09:53:19.563Z,32.32
2019-04-20T09:55:53.664Z,32.59
2019-04-20T09:58:18.118Z,32.17
2019-04-20T10:01:12.407Z,33.40
2019-04-20T10:03:26.837Z,31.53
2019-04-20T10:05:56.896Z,31.39
2019-04-20T10:08:25.993Z,31.06
2019-04-20T10:10:56.179Z,30.75
2019-04-20T10:13:27.180Z,31.10
2019-04-20T10:15:57.701Z,30.62
2019-04-20T10:18:27.979Z,30.29
2019-04-20T10:20:57.926Z,30.64
2019-04-20T10:23:27.764Z,30.68
2019-04-20T10:25:56.628Z,29.86
2019-04-20T10:28:25.676Z,29.24
2019-04-20T10:31:14.933Z,29.21
2019-04-20T10:33:43.809Z,27.56
2019-04-20T10:36:31.603Z,28.55
2019-04-20T10:39:00.399Z,27.83
2019-04-20T10:41:38.158Z,26.61
2019-04-20T10:44:00.743Z,27.91
2019-04-20T10:46:31.027Z,27.23
2019-04-20T10:49:03.805Z,26.54
2019-04-20T10:51:31.467Z,26.50
2019-04-20T10:54:02.437Z,27.50
2019-04-20T10:56:31.780Z,26.62
2019-04-20T10:59:01.768Z,24.66
2019-04-20T11:01:31.573Z,26.76
2019-04-20T11:04:00.846Z,25.69
2019-04-20T11:06:29.487Z,25.35
2019-04-20T11:08:58.532Z,25.21
2019-04-20T11:11:30.814Z,25.38
2019-04-20T11:14:06.269Z,25.61
2019-04-20T11:16:30.527Z,25.08
2019-04-20T11:19:01.001Z,25.27
2019-04-20T11:21:30.227Z,25.18
2019-04-20T11:23:58.757Z,24.55
2019-04-20T11:26:28.618Z,23.74
2019-04-20T11:28:58.054Z,23.28
2019-04-20T11:31:37.333Z,23.29
2019-04-20T11:33:58.548Z,22.66
2019-04-20T11:36:27.477Z,23.09
2019-04-20T11:38:58.704Z,22.87
2019-04-20T11:41:31.034Z,22.94
2019-04-20T11:43:58.366Z,22.69
2019-04-20T11:46:28.718Z,22.28
2019-04-20T11:48:57.397Z,22.52
2019-04-20T11:51:26.036Z,23.23
2019-04-20T11:53:54.713Z,22.35
2019-04-20T11:56:28.052Z,22.39
2019-04-20T11:58:53.803Z,21.69
2019-04-20T12:01:49.307Z,22.12
2019-04-20T12:12:42.466Z,21.33
2019-04-20T12:15:47.667Z,20.92
2019-04-20T12:18:17.912Z,20.26
2019-04-20T12:20:47.731Z,19.81
2019-04-20T12:23:16.472Z,19.99
2019-04-20T12:25:46.295Z,19.52
2019-04-20T12:28:15.712Z,20.79
2019-04-20T12:30:46.027Z,20.33
2019-04-20T12:33:15.607Z,19.96
2019-04-20T12:35:45.096Z,19.18
2019-04-20T12:38:14.887Z,19.50
2019-04-20T12:40:44.162Z,19.95
2019-04-20T12:43:13.221Z,19.54
2019-04-20T12:45:44.146Z,19.68
2019-04-20T12:48:13.635Z,19.76
2019-04-20T12:53:50.809Z,19.62
2019-04-20T12:56:20.801Z,19.50
2019-04-20T12:58:49.554Z,19.51
2019-04-20T13:01:21.979Z,19.46
2019-04-20T13:03:49.846Z,19.57
2019-04-20T13:06:19.598Z,19.89
2019-04-20T13:09:30.489Z,18.17
2019-04-20T13:12:19.393Z,18.77
2019-04-20T13:15:46.656Z,19.45
2019-04-20T13:21:05.067Z,19.01
2019-04-20T13:23:35.143Z,18.59
2019-04-20T13:26:07.236Z,18.99
2019-04-20T13:28:36.850Z,18.43
2019-04-20T13:31:06.172Z,18.42
2019-04-20T13:34:15.141Z,17.02
2019-04-20T13:36:46.206Z,18.47
2019-04-20T13:39:16.557Z,16.82
2019-04-20T13:41:57.576Z,16.55
2019-04-20T13:44:16.146Z,17.35
2019-04-20T13:46:45.040Z,17.37
2019-04-20T13:49:15.276Z,16.86
2019-04-20T13:51:44.599Z,16.87
2019-04-20T13:54:18.872Z,16.83
2019-04-20T14:02:28.864Z,17.16
2019-04-20T14:07:57.590Z,15.90
2019-04-20T14:10:27.086Z,17.33
2019-04-20T14:13:03.148Z,16.16
2019-04-20T14:15:28.996Z,15.97
2019-04-20T14:17:59.144Z,17.13
2019-04-20T14:20:29.751Z,17.12
2019-04-20T14:22:58.904Z,15.90
2019-04-20T14:25:29.001Z,17.07
2019-04-20T14:27:57.972Z,16.28
2019-04-20T14:30:26.944Z,17.54
2019-04-20T14:32:57.009Z,16.87
2019-04-20T14:35:27.026Z,17.47
2019-04-20T14:37:57.498Z,16.80
2019-04-20T14:40:26.467Z,17.20
2019-04-20T14:42:56.943Z,18.09
2019-04-20T14:45:26.882Z,17.37
2019-04-20T14:47:57.390Z,18.53
2019-04-20T14:50:27.575Z,16.58
2019-04-20T14:52:57.603Z,16.66
2019-04-20T14:55:27.242Z,18.12
2019-04-20T15:01:18.565Z,17.28
2019-04-20T15:03:50.947Z,17.22
2019-04-20T15:06:17.915Z,18.15
2019-04-20T15:08:46.595Z,18.02
2019-04-20T15:11:15.249Z,17.95
2019-04-20T15:13:46.886Z,18.59
2019-04-20T15:16:56.331Z,17.11
2019-04-20T15:24:41.728Z,18.34
2019-04-20T15:27:12.148Z,17.33
2019-04-20T15:29:42.241Z,17.37
2019-04-20T15:32:13.015Z,18.45
2019-04-20T15:34:42.716Z,18.95
2019-04-20T15:37:12.524Z,18.04
2019-04-20T15:42:29.576Z,19.17
2019-04-20T15:44:59.208Z,19.98
2019-04-20T15:47:28.045Z,17.86
2019-04-20T15:49:57.972Z,17.34
2019-04-20T15:52:31.850Z,18.39
2019-04-20T15:54:57.305Z,18.64
2019-04-20T15:57:29.122Z,18.23
2019-04-20T15:59:56.400Z,18.71
2019-04-20T16:08:44.391Z,19.87
2019-04-20T16:11:13.379Z,19.13
2019-04-20T16:13:47.551Z,18.79
2019-04-20T16:16:13.995Z,19.88
2019-04-20T16:19:32.780Z,18.81
2019-04-20T16:21:53.973Z,19.59
2019-04-20T16:27:21.725Z,19.69
2019-04-20T16:29:51.607Z,21.21
2019-04-20T16:32:20.716Z,19.42
2019-04-20T16:34:50.605Z,19.94
2019-04-20T16:37:20.147Z,19.37
2019-04-20T16:39:50.450Z,19.85
2019-04-20T16:42:20.531Z,20.36
2019-04-20T16:44:49.457Z,20.31
2019-04-20T16:47:19.608Z,20.04
2019-04-20T16:49:48.806Z,20.22
2019-04-20T16:52:19.124Z,20.70
2019-04-20T16:54:50.095Z,21.21
2019-04-20T16:57:39.709Z,20.19
2019-04-20T17:03:17.389Z,20.90
2019-04-20T17:05:48.509Z,21.65
2019-04-20T17:08:16.777Z,21.30
2019-04-20T17:13:56.976Z,20.87
2019-04-20T17:16:25.911Z,21.23
2019-04-20T17:18:55.687Z,22.39
2019-04-20T17:21:27.715Z,21.21
2019-04-20T17:23:55.448Z,22.47
2019-04-20T17:29:33.836Z,21.37
2019-04-20T17:35:01.956Z,22.54
2019-04-20T17:37:22.626Z,22.50
2019-04-20T17:40:12.170Z,22.33
2019-04-20T17:42:36.330Z,23.30
2019-04-20T17:45:03.781Z,24.00
2019-04-20T17:47:44.371Z,24.25
2019-04-20T17:50:13.170Z,25.00
2019-04-20T17:52:55.237Z,25.06
2019-04-20T17:55:49.377Z,24.36
2019-04-20T17:58:20.739Z,25.57
2019-04-20T18:01:21.093Z,25.85
2019-04-20T18:04:27.602Z,25.65
2019-04-20T18:06:57.892Z,26.11
2019-04-20T18:09:38.685Z,25.42
2019-04-20T18:11:52.028Z,26.25
2019-04-20T18:14:33.372Z,25.38
2019-04-20T18:17:17.877Z,26.48
2019-04-20T18:19:56.889Z,25.94
2019-04-20T18:22:27.666Z,28.32
2019-04-20T18:25:22.493Z,29.01
2019-04-20T18:27:41.485Z,28.75
2019-04-20T18:32:47.409Z,30.67
2019-04-20T18:35:41.270Z,31.02
2019-04-20T18:38:12.598Z,30.59
2019-04-20T18:40:50.850Z,30.61
2019-04-20T18:43:15.023Z,31.32
2019-04-20T18:45:58.238Z,31.76
2019-04-20T18:48:33.621Z,32.79
2019-04-20T18:50:43.521Z,32.62
2019-04-20T18:53:16.064Z,32.66
2019-04-20T18:55:48.055Z,32.20
2019-04-20T18:58:11.069Z,32.61
2019-04-20T19:00:44.226Z,34.14
2019-04-20T19:03:20.366Z,32.64
2019-04-20T19:05:42.140Z,31.87
2019-04-20T19:08:13.839Z,32.12
2019-04-20T19:10:43.776Z,33.46
2019-04-20T19:13:36.765Z,33.13
2019-04-20T19:16:30.472Z,33.18
2019-04-20T19:19:23.429Z,34.61
2019-04-20T19:21:41.628Z,36.62
2019-04-20T19:24:13.266Z,36.33
2019-04-20T19:26:48.786Z,34.21
2019-04-20T19:29:22.173Z,33.95
2019-04-20T19:31:56.801Z,36.34
2019-04-20T19:34:31.279Z,36.58
2019-04-20T19:36:58.021Z,33.75
2019-04-20T19:39:25.748Z,37.14
2019-04-20T19:42:08.603Z,35.53
2019-04-20T19:44:42.335Z,39.48
2019-04-20T19:47:17.020Z,37.23
2019-04-20T19:50:10.912Z,37.73
2019-04-20T19:52:55.836Z,36.55
2019-04-20T19:55:02.426Z,38.40
2019-04-20T19:57:51.040Z,37.71
2019-04-20T20:00:50.496Z,38.65
2019-04-20T20:03:17.428Z,35.86
2019-04-20T20:05:48.947Z,37.94
2019-04-20T20:09:01.872Z,37.90
2019-04-20T20:11:32.283Z,40.24
2019-04-20T20:13:58.890Z,39.82
2019-04-20T20:16:43.606Z,39.16
2019-04-20T20:19:06.034Z,40.20
2019-04-20T20:21:46.737Z,39.01
2019-04-20T20:23:59.718Z,40.61
2019-04-20T20:26:36.207Z,39.87
2019-04-20T20:29:09.632Z,39.84
2019-04-20T20:31:49.966Z,41.08
2019-04-20T20:34:10.934Z,40.35
2019-04-20T20:36:45.267Z,41.70
2019-04-20T20:39:09.638Z,42.11
2019-04-20T20:41:46.693Z,42.96
2019-04-20T20:44:08.758Z,41.48
2019-04-20T20:46:39.622Z,40.72
2019-04-20T20:49:22.685Z,42.04
2019-04-20T20:52:11.959Z,39.87
2019-04-20T20:54:40.430Z,40.66
2019-04-20T20:57:01.433Z,42.32
2019-04-20T20:59:35.828Z,41.10
2019-04-20T21:02:06.776Z,43.12
2019-04-20T21:04:25.810Z,43.35
2019-04-20T21:06:54.890Z,41.31
2019-04-20T21:09:25.643Z,42.40
2019-04-20T21:12:00.589Z,43.68
2019-04-20T21:14:29.527Z,43.74
2019-04-20T21:17:02.995Z,45.24
2019-04-20T21:19:45.272Z,44.61
2019-04-20T21:22:04.835Z,44.39
2019-04-20T21:27:23.924Z,43.73
2019-04-20T21:29:56.377Z,42.79
2019-04-20T21:32:24.030Z,44.47
2019-04-20T21:34:58.463Z,44.98
2019-04-20T21:37:51.205Z,46.39
2019-04-20T21:40:25.129Z,46.55
2019-04-20T21:42:53.556Z,46.39
2019-04-20T21:45:59.432Z,45.04
2019-04-20T21:48:50.519Z,46.21
2019-04-20T21:51:13.980Z,43.62
2019-04-20T21:53:32.974Z,44.16
2019-04-20T21:55:59.757Z,45.94
2019-04-20T21:58:35.216Z,44.97
2019-04-20T22:01:12.112Z,41.65
2019-04-20T22:03:32.442Z,42.36
2019-04-20T22:06:22.495Z,44.20
2019-04-20T22:08:56.895Z,44.29
2019-04-20T22:11:23.967Z,42.62
2019-04-20T22:13:54.528Z,45.28
2019-04-20T22:16:49.162Z,45.04
2019-04-20T22:19:41.829Z,44.42
2019-04-20T22:22:15.159Z,43.54
2019-04-20T22:24:53.985Z,45.18
2019-04-20T22:27:12.879Z,44.16
2019-04-20T22:29:36.309Z,44.53
2019-04-20T22:32:11.288Z,45.85
2019-04-20T22:34:37.618Z,45.36
2019-04-20T22:37:08.581Z,44.58
2019-04-20T22:39:58.300Z,43.44
2019-04-20T22:42:31.319Z,42.10
2019-04-20T22:45:05.427Z,43.25
2019-04-20T22:47:32.584Z,40.97
2019-04-20T22:50:31.626Z,42.73
2019-04-20T22:55:42.631Z,43.08
2019-04-20T22:58:25.057Z,42.46
2019-04-20T23:00:50.138Z,43.38
2019-04-20T23:03:10.611Z,41.46
2019-04-20T23:05:40.596Z,41.66
2019-04-20T23:08:10.945Z,41.89
2019-04-20T23:10:45.910Z,40.63
2019-04-20T23:13:11.545Z,41.44
2019-04-20T23:15:49.224Z,42.13
2019-04-20T23:18:13.956Z,41.39
2019-04-20T23:20:44.093Z,40.74
2019-04-20T23:23:19.358Z,40.38
2019-04-20T23:25:45.231Z,42.50
2019-04-20T23:28:17.435Z,41.25
2019-04-20T23:30:45.718Z,42.90
2019-04-20T23:36:06.763Z,42.81
2019-04-20T23:39:16.891Z,43.66
2019-04-20T23:41:53.611Z,44.75
2019-04-20T23:44:40.099Z,45.41
2019-04-20T23:47:26.003Z,45.31
2019-04-20T23:50:34.191Z,45.51
2019-04-20T23:53:08.673Z,46.77
2019-04-20T23:55:18.813Z,46.87
2019-04-20T23:58:10.574Z,45.57
